createdAt,value
2017-10-10T00:01:34.263Z,9.13
2017-10-10T00:04:03.360Z,9.30
2017-10-10T00:06:31.631Z,8.80
2017-10-10T00:08:59.971Z,8.87
2017-10-10T00:11:28.250Z,9.80
2017-10-10T00:13:56.531Z,9.05
2017-10-10T00:16:25.629Z,10.20
2017-10-10T00:18:53.902Z,9.37
2017-10-10T00:21:22.192Z,9.35
2017-10-10T00:23:50.460Z,9.95
2017-10-10T00:26:18.771Z,9.20
2017-10-10T00:28:47.799Z,9.48
2017-10-10T00:31:16.071Z,10.55
2017-10-10T00:33:44.363Z,11.00
2017-10-10T00:36:13.416Z,10.05
2017-10-10T00:38:41.719Z,9.60
2017-10-10T00:41:10.031Z,9.93
2017-10-10T00:43:38.303Z,10.23
2017-10-10T00:46:06.595Z,10.18
2017-10-10T00:48:35.672Z,10.07
2017-10-10T00:51:04.796Z,11.18
2017-10-10T00:53:33.199Z,10.07
2017-10-10T00:56:01.478Z,10.77
2017-10-10T00:58:30.539Z,10.07
2017-10-10T01:00:58.815Z,9.85
2017-10-10T01:03:28.004Z,8.77
2017-10-10T01:05:57.047Z,10.93
2017-10-10T01:08:25.327Z,9.48
2017-10-10T01:10:53.612Z,9.18
2017-10-10T01:13:21.886Z,10.00
2017-10-10T01:15:50.184Z,9.68
2017-10-10T01:18:18.463Z,10.82
2017-10-10T01:20:46.751Z,10.48
2017-10-10T01:23:15.785Z,10.00
2017-10-10T01:25:44.153Z,10.95
2017-10-10T01:28:12.423Z,10.38
2017-10-10T01:30:40.744Z,10.25
2017-10-10T01:33:09.020Z,10.10
2017-10-10T01:35:37.295Z,9.23
2017-10-10T01:38:06.358Z,10.30
2017-10-10T01:40:34.647Z,11.18
2017-10-10T01:43:02.999Z,10.02
2017-10-10T01:45:31.302Z,9.13
2017-10-10T01:48:00.338Z,10.77
2017-10-10T01:50:28.639Z,9.25
2017-10-10T01:52:57.678Z,10.60
2017-10-10T01:55:25.995Z,9.68
2017-10-10T01:57:55.075Z,9.80
2017-10-10T02:00:23.352Z,9.35
2017-10-10T02:02:51.663Z,10.30
2017-10-10T02:05:19.936Z,9.80
2017-10-10T02:07:48.995Z,11.63
2017-10-10T02:10:17.267Z,10.13
2017-10-10T02:12:45.560Z,9.77
2017-10-10T02:15:13.831Z,10.70
2017-10-10T02:17:42.130Z,9.77
2017-10-10T02:20:10.399Z,9.85
2017-10-10T02:22:38.691Z,10.47
2017-10-10T02:25:07.735Z,10.95
2017-10-10T02:27:36.059Z,10.48
2017-10-10T02:30:04.332Z,9.90
2017-10-10T02:32:32.603Z,10.90
2017-10-10T02:35:00.891Z,10.55
2017-10-10T02:37:29.284Z,9.20
2017-10-10T02:39:58.362Z,11.05
2017-10-10T02:42:27.415Z,10.13
2017-10-10T02:44:57.199Z,10.03
2017-10-10T02:47:25.490Z,9.10
2017-10-10T02:49:54.614Z,9.90
2017-10-10T02:52:22.937Z,11.05
2017-10-10T02:54:51.204Z,9.40
2017-10-10T02:57:20.285Z,10.60
2017-10-10T02:59:49.347Z,11.18
2017-10-10T03:02:17.620Z,10.50
2017-10-10T03:04:46.699Z,10.70
2017-10-10T03:07:15.747Z,10.57
2017-10-10T03:09:44.018Z,11.30
2017-10-10T03:12:12.317Z,10.35
2017-10-10T03:14:40.592Z,10.30
2017-10-10T03:17:08.940Z,11.10
2017-10-10T03:19:37.975Z,9.60
2017-10-10T03:22:06.256Z,10.65
2017-10-10T03:24:34.548Z,9.35
2017-10-10T03:27:02.826Z,8.52
2017-10-10T03:29:32.051Z,10.25
2017-10-10T03:32:01.208Z,9.27
2017-10-10T03:34:29.724Z,10.20
2017-10-10T03:36:58.758Z,11.27
2017-10-10T03:39:27.058Z,10.30
2017-10-10T03:41:56.110Z,9.27
2017-10-10T03:44:24.387Z,9.02
2017-10-10T03:46:52.706Z,10.00
2017-10-10T03:49:20.988Z,9.45
2017-10-10T03:51:49.262Z,9.02
2017-10-10T03:54:17.563Z,9.52
2017-10-10T03:56:46.606Z,10.50
2017-10-10T03:59:14.894Z,9.18
2017-10-10T04:01:43.924Z,9.38
2017-10-10T04:04:12.319Z,10.35
2017-10-10T04:06:40.651Z,9.07
2017-10-10T04:09:08.923Z,8.73
2017-10-10T04:11:37.212Z,9.95
2017-10-10T04:14:06.303Z,8.10
2017-10-10T04:16:35.360Z,9.55
2017-10-10T04:19:03.639Z,8.63
2017-10-10T04:21:32.727Z,9.77
2017-10-10T04:24:01.766Z,8.05
2017-10-10T04:26:30.043Z,9.38
2017-10-10T04:28:58.343Z,9.48
2017-10-10T04:31:26.633Z,8.88
2017-10-10T04:33:54.927Z,8.50
2017-10-10T04:36:23.203Z,8.63
2017-10-10T04:38:52.239Z,9.27
2017-10-10T04:41:20.528Z,9.35
2017-10-10T04:43:48.804Z,8.77
2017-10-10T04:46:17.106Z,9.63
2017-10-10T04:48:45.384Z,9.80
2017-10-10T04:51:13.660Z,8.83
2017-10-10T04:53:41.948Z,9.30
2017-10-10T04:56:10.979Z,8.25
2017-10-10T04:58:39.271Z,9.48
2017-10-10T05:01:07.555Z,8.57
2017-10-10T05:03:35.861Z,9.07
2017-10-10T05:06:04.134Z,9.30
2017-10-10T05:08:32.419Z,8.48
2017-10-10T05:11:00.717Z,9.00
2017-10-10T05:13:29.751Z,8.00
2017-10-10T05:15:58.041Z,8.20
2017-10-10T05:18:27.079Z,8.20
2017-10-10T05:20:55.387Z,8.63
2017-10-10T05:23:24.415Z,9.10
2017-10-10T05:25:52.678Z,9.83
2017-10-10T05:28:20.984Z,8.02
2017-10-10T05:30:50.063Z,8.07
2017-10-10T05:33:19.107Z,8.20
2017-10-10T05:35:47.375Z,7.53
2017-10-10T05:38:15.655Z,9.73
2017-10-10T05:40:44.736Z,8.10
2017-10-10T05:43:13.008Z,8.90
2017-10-10T05:45:42.048Z,8.57
2017-10-10T05:48:10.348Z,8.23
2017-10-10T05:50:39.387Z,8.40
2017-10-10T05:53:07.686Z,8.87
2017-10-10T05:55:36.744Z,8.35
2017-10-10T05:58:05.015Z,8.10
2017-10-10T06:00:33.307Z,7.95
2017-10-10T06:03:01.583Z,9.35
2017-10-10T06:05:30.017Z,8.50
2017-10-10T06:07:59.067Z,8.02
2017-10-10T06:10:27.335Z,8.85
2017-10-10T06:12:55.623Z,8.18
2017-10-10T06:15:24.655Z,7.60
2017-10-10T06:17:53.151Z,8.82
2017-10-10T06:20:21.559Z,8.25
2017-10-10T06:22:49.837Z,8.27
2017-10-10T06:25:18.139Z,7.97
2017-10-10T06:27:46.451Z,8.30
2017-10-10T06:30:14.723Z,8.00
2017-10-10T06:32:43.003Z,7.45
2017-10-10T06:35:11.287Z,6.82
2017-10-10T06:37:40.319Z,7.80
2017-10-10T06:40:08.643Z,7.72
2017-10-10T06:42:37.686Z,7.12
2017-10-10T06:45:05.960Z,7.60
2017-10-10T06:47:34.250Z,7.95
2017-10-10T06:50:02.550Z,7.37
2017-10-10T06:52:30.956Z,6.90
2017-10-10T06:54:59.235Z,7.15
2017-10-10T06:57:28.283Z,7.65
2017-10-10T06:59:56.572Z,7.53
2017-10-10T07:02:25.626Z,7.50
2017-10-10T07:04:55.422Z,7.90
2017-10-10T07:07:23.712Z,7.07
2017-10-10T07:09:52.750Z,6.65
2017-10-10T07:12:21.028Z,6.80
2017-10-10T07:14:49.304Z,6.90
2017-10-10T07:17:18.339Z,7.15
2017-10-10T07:19:46.622Z,6.70
2017-10-10T07:22:16.403Z,6.15
2017-10-10T07:24:44.682Z,6.53
2017-10-10T07:27:12.986Z,6.53
2017-10-10T07:29:41.263Z,6.00
2017-10-10T07:32:09.547Z,7.03
2017-10-10T07:34:37.823Z,6.40
2017-10-10T07:37:06.408Z,6.10
2017-10-10T07:39:34.691Z,5.97
2017-10-10T07:42:03.712Z,5.85
2017-10-10T07:44:32.003Z,6.32
2017-10-10T07:47:00.295Z,4.93
2017-10-10T07:49:28.596Z,5.97
2017-10-10T07:51:56.856Z,6.07
2017-10-10T07:54:25.123Z,5.28
2017-10-10T07:56:53.420Z,5.53
2017-10-10T07:59:22.455Z,6.50
2017-10-10T08:01:50.767Z,4.90
2017-10-10T08:04:19.799Z,6.10
2017-10-10T08:06:48.060Z,5.00
2017-10-10T08:09:16.343Z,5.15
2017-10-10T08:11:44.621Z,5.10
2017-10-10T08:14:12.902Z,5.10
2017-10-10T08:16:41.183Z,4.65
2017-10-10T08:19:09.451Z,5.60
2017-10-10T08:21:37.740Z,5.93
2017-10-10T08:24:06.020Z,5.37
2017-10-10T08:26:34.311Z,5.37
2017-10-10T08:29:02.579Z,6.00
2017-10-10T08:31:30.890Z,5.10
2017-10-10T08:33:59.172Z,4.43
2017-10-10T08:36:28.206Z,5.05
2017-10-10T08:38:56.523Z,5.10
2017-10-10T08:41:25.551Z,5.00
2017-10-10T08:43:53.838Z,4.87
2017-10-10T08:46:22.094Z,4.72
2017-10-10T08:48:50.419Z,4.95
2017-10-10T08:51:18.687Z,5.30
2017-10-10T08:53:46.960Z,5.43
2017-10-10T08:56:15.238Z,5.28
2017-10-10T08:58:43.508Z,5.80
2017-10-10T09:01:11.818Z,5.83
2017-10-10T09:03:40.075Z,5.37
2017-10-10T09:06:08.335Z,5.57
2017-10-10T09:08:36.628Z,5.47
2017-10-10T09:11:04.894Z,4.90
2017-10-10T09:13:33.394Z,5.45
2017-10-10T09:16:01.651Z,5.30
2017-10-10T09:18:29.921Z,5.77
2017-10-10T09:20:58.980Z,4.90
2017-10-10T09:23:27.267Z,5.12
2017-10-10T09:25:56.339Z,4.85
2017-10-10T09:28:25.375Z,6.30
2017-10-10T09:30:53.644Z,5.57
2017-10-10T09:33:21.927Z,4.80
2017-10-10T09:35:50.191Z,4.47
2017-10-10T09:38:18.601Z,5.40
2017-10-10T09:40:46.861Z,4.55
2017-10-10T09:43:15.128Z,4.97
2017-10-10T09:45:43.411Z,4.05
2017-10-10T09:48:11.783Z,5.80
2017-10-10T09:50:40.149Z,4.75
2017-10-10T09:53:08.411Z,4.67
2017-10-10T09:55:36.678Z,4.87
2017-10-10T09:58:04.963Z,5.87
2017-10-10T10:00:33.996Z,4.80
2017-10-10T10:03:02.300Z,4.78
2017-10-10T10:05:30.632Z,4.70
2017-10-10T10:07:58.882Z,3.95
2017-10-10T10:10:27.168Z,4.97
2017-10-10T10:12:55.452Z,4.80
2017-10-10T10:15:24.524Z,5.62
2017-10-10T10:17:53.554Z,5.10
2017-10-10T10:20:21.831Z,4.10
2017-10-10T10:22:50.120Z,4.22
2017-10-10T10:25:18.379Z,4.10
2017-10-10T10:27:46.663Z,3.62
2017-10-10T10:30:14.940Z,3.45
2017-10-10T10:32:43.223Z,4.07
2017-10-10T10:35:11.486Z,3.63
2017-10-10T10:37:39.887Z,4.45
2017-10-10T10:40:08.147Z,4.72
2017-10-10T10:42:37.178Z,4.30
2017-10-10T10:45:05.463Z,4.93
2017-10-10T10:47:33.736Z,4.43
2017-10-10T10:50:02.062Z,4.25
2017-10-10T10:52:30.388Z,5.55
2017-10-10T10:54:59.427Z,4.95
2017-10-10T10:57:27.711Z,4.18
2017-10-10T10:59:55.975Z,4.87
2017-10-10T11:02:24.538Z,4.15
2017-10-10T11:04:54.315Z,4.12
2017-10-10T11:07:22.579Z,5.35
2017-10-10T11:09:50.859Z,4.70
2017-10-10T11:12:19.127Z,4.43
2017-10-10T11:14:47.435Z,4.67
2017-10-10T11:17:15.704Z,5.18
2017-10-10T11:19:43.966Z,4.82
2017-10-10T11:22:12.263Z,5.18
2017-10-10T11:24:40.532Z,6.10
2017-10-10T11:27:08.844Z,4.62
2017-10-10T11:29:37.123Z,5.55
2017-10-10T11:32:05.392Z,5.10
2017-10-10T11:34:33.684Z,4.80
2017-10-10T11:37:02.724Z,5.20
2017-10-10T11:39:31.045Z,5.37
2017-10-10T11:41:59.315Z,4.65
2017-10-10T11:44:27.599Z,5.05
2017-10-10T11:46:55.879Z,5.45
2017-10-10T11:49:24.145Z,5.12
2017-10-10T11:51:52.455Z,5.23
2017-10-10T11:54:20.733Z,4.87
2017-10-10T11:56:48.991Z,5.07
2017-10-10T11:59:17.274Z,5.40
2017-10-10T12:01:45.554Z,4.47
2017-10-10T12:04:13.840Z,6.12
2017-10-10T12:06:42.876Z,4.70
2017-10-10T12:09:11.160Z,4.55
2017-10-10T12:11:39.436Z,5.90
2017-10-10T12:14:08.523Z,4.68
2017-10-10T12:16:37.662Z,5.53
2017-10-10T12:19:05.922Z,4.85
2017-10-10T12:21:34.211Z,4.78
2017-10-10T12:24:02.479Z,4.57
2017-10-10T12:26:31.541Z,4.60
2017-10-10T12:28:59.805Z,5.50
2017-10-10T12:31:28.104Z,5.45
2017-10-10T12:33:57.131Z,4.43
2017-10-10T12:36:25.623Z,4.77
2017-10-10T12:38:53.892Z,5.22
2017-10-10T12:41:22.927Z,5.05
2017-10-10T12:43:51.210Z,4.80
2017-10-10T12:46:19.488Z,5.18
2017-10-10T12:48:47.787Z,4.70
2017-10-10T12:51:16.060Z,4.62
2017-10-10T12:53:44.331Z,5.10
2017-10-10T12:56:12.621Z,5.25
2017-10-10T12:58:40.892Z,5.10
2017-10-10T13:01:09.199Z,5.68
2017-10-10T13:03:37.476Z,5.80
2017-10-10T13:06:05.743Z,5.35
2017-10-10T13:08:34.028Z,4.80
2017-10-10T13:11:03.824Z,5.40
2017-10-10T13:13:32.128Z,5.55
2017-10-10T13:16:00.398Z,5.23
2017-10-10T13:18:28.664Z,4.10
2017-10-10T13:20:56.955Z,4.95
2017-10-10T13:23:25.228Z,5.12
2017-10-10T13:25:53.527Z,5.40
2017-10-10T13:28:22.562Z,5.75
2017-10-10T13:30:50.839Z,5.55
2017-10-10T13:33:19.123Z,5.90
2017-10-10T13:35:48.187Z,5.07
2017-10-10T13:38:17.248Z,5.60
2017-10-10T13:40:45.510Z,5.40
2017-10-10T13:43:13.783Z,4.90
2017-10-10T13:45:42.068Z,5.20
2017-10-10T13:48:11.103Z,5.80
2017-10-10T13:50:39.399Z,5.90
2017-10-10T13:53:08.440Z,4.90
2017-10-10T13:55:36.709Z,5.72
2017-10-10T13:58:04.986Z,4.93
2017-10-10T14:00:33.256Z,4.90
2017-10-10T14:03:02.339Z,5.25
2017-10-10T14:05:30.613Z,4.90
2017-10-10T14:07:59.644Z,5.65
2017-10-10T14:10:28.004Z,5.33
2017-10-10T14:12:56.327Z,5.23
2017-10-10T14:15:24.604Z,5.53
2017-10-10T14:17:52.868Z,5.40
2017-10-10T14:20:21.215Z,5.85
2017-10-10T14:22:49.511Z,5.00
2017-10-10T14:25:17.784Z,5.05
2017-10-10T14:27:46.052Z,6.75
2017-10-10T14:30:14.333Z,6.57
2017-10-10T14:32:43.382Z,6.43
2017-10-10T14:35:11.868Z,5.90
2017-10-10T14:37:40.143Z,5.28
2017-10-10T14:40:09.174Z,6.75
2017-10-10T14:42:37.463Z,6.60
2017-10-10T14:45:06.503Z,6.40
2017-10-10T14:47:35.021Z,6.10
2017-10-10T14:50:03.284Z,6.80
2017-10-10T14:52:32.310Z,5.78
2017-10-10T14:55:00.600Z,6.18
2017-10-10T14:57:28.899Z,7.35
2017-10-10T14:59:57.936Z,6.95
2017-10-10T15:02:26.223Z,6.18
2017-10-10T15:04:54.512Z,6.35
2017-10-10T15:07:22.782Z,6.45
2017-10-10T15:09:51.063Z,6.18
2017-10-10T15:12:19.330Z,6.25
2017-10-10T15:14:47.615Z,7.05
2017-10-10T15:17:15.886Z,6.85
2017-10-10T15:19:44.143Z,7.82
2017-10-10T15:22:12.431Z,5.80
2017-10-10T15:24:40.701Z,6.32
2017-10-10T15:27:09.128Z,6.22
2017-10-10T15:29:38.171Z,7.70
2017-10-10T15:32:06.435Z,5.95
2017-10-10T15:34:34.715Z,7.72
2017-10-10T15:37:02.983Z,7.05
2017-10-10T15:39:31.279Z,6.17
2017-10-10T15:42:00.311Z,7.40
2017-10-10T15:44:28.732Z,7.07
2017-10-10T15:46:56.994Z,6.75
2017-10-10T15:49:25.266Z,7.80
2017-10-10T15:51:53.559Z,6.85
2017-10-10T15:54:21.823Z,6.70
2017-10-10T15:56:50.118Z,8.05
2017-10-10T15:59:19.159Z,7.37
2017-10-10T16:01:47.424Z,7.50
2017-10-10T16:04:15.748Z,6.90
2017-10-10T16:06:44.015Z,7.10
2017-10-10T16:09:12.320Z,7.50
2017-10-10T16:11:40.595Z,7.80
2017-10-10T16:14:09.623Z,7.45
2017-10-10T16:16:37.932Z,7.00
2017-10-10T16:19:06.195Z,7.00
2017-10-10T16:21:34.499Z,7.60
2017-10-10T16:24:02.768Z,6.82
2017-10-10T16:26:31.035Z,6.75
2017-10-10T16:28:59.315Z,8.63
2017-10-10T16:31:27.587Z,6.43
2017-10-10T16:33:55.910Z,7.45
2017-10-10T16:36:24.163Z,6.47
2017-10-10T16:38:52.447Z,6.75
2017-10-10T16:41:20.743Z,6.60
2017-10-10T16:43:49.007Z,6.82
2017-10-10T16:46:17.302Z,6.60
2017-10-10T16:48:45.795Z,6.47
2017-10-10T16:51:14.070Z,6.03
2017-10-10T16:53:42.360Z,5.35
2017-10-10T16:56:11.215Z,6.50
2017-10-10T16:58:41.056Z,6.45
2017-10-10T17:01:09.395Z,8.07
2017-10-10T17:03:37.660Z,7.37
2017-10-10T17:06:06.711Z,7.10
2017-10-10T17:08:35.749Z,8.25
2017-10-10T17:11:04.040Z,7.62
2017-10-10T17:13:32.313Z,6.20
2017-10-10T17:16:00.617Z,7.12
2017-10-10T17:18:29.651Z,7.00
2017-10-10T17:20:57.975Z,6.55
2017-10-10T17:23:27.868Z,7.10
2017-10-10T17:25:56.936Z,6.53
2017-10-10T17:28:25.979Z,6.03
2017-10-10T17:30:54.256Z,6.73
2017-10-10T17:33:22.735Z,7.43
2017-10-10T17:35:51.797Z,6.55
2017-10-10T17:38:21.611Z,6.70
2017-10-10T17:40:49.907Z,6.80
2017-10-10T17:43:18.175Z,6.50
2017-10-10T17:45:46.463Z,6.90
2017-10-10T17:48:14.735Z,6.93
2017-10-10T17:50:43.025Z,6.12
2017-10-10T17:53:12.059Z,6.60
2017-10-10T17:55:40.352Z,6.50
2017-10-10T17:58:09.409Z,6.82
2017-10-10T18:00:37.684Z,7.55
2017-10-10T18:03:05.995Z,6.68
2017-10-10T18:05:34.266Z,6.87
2017-10-10T18:08:02.547Z,6.07
2017-10-10T18:10:30.819Z,6.72
2017-10-10T18:12:59.088Z,7.20
2017-10-10T18:15:27.427Z,6.68
2017-10-10T18:17:55.695Z,7.28
2017-10-10T18:20:23.963Z,6.10
2017-10-10T18:22:52.252Z,6.67
2017-10-10T18:25:21.279Z,6.95
2017-10-10T18:27:49.563Z,5.65
2017-10-10T18:30:17.832Z,6.68
2017-10-10T18:32:46.135Z,5.80
2017-10-10T18:35:14.416Z,5.35
2017-10-10T18:37:42.692Z,5.85
2017-10-10T18:40:10.975Z,6.20
2017-10-10T18:42:39.247Z,6.53
2017-10-10T18:45:07.527Z,6.30
2017-10-10T18:47:36.559Z,6.12
2017-10-10T18:50:04.860Z,5.85
2017-10-10T18:52:33.937Z,6.30
2017-10-10T18:55:02.196Z,6.33
2017-10-10T18:57:30.479Z,6.97
2017-10-10T18:59:58.751Z,6.30
2017-10-10T19:02:27.056Z,6.30
2017-10-10T19:04:55.345Z,6.90
2017-10-10T19:07:23.592Z,6.90
2017-10-10T19:09:51.883Z,6.70
2017-10-10T19:12:20.908Z,7.33
2017-10-10T19:14:49.238Z,6.20
2017-10-10T19:17:17.511Z,7.35
2017-10-10T19:19:45.787Z,8.13
2017-10-10T19:22:14.071Z,7.37
2017-10-10T19:24:42.335Z,8.63
2017-10-10T19:27:10.643Z,6.80
2017-10-10T19:29:38.926Z,8.15
2017-10-10T19:32:07.186Z,7.20
2017-10-10T19:34:35.475Z,7.28
2017-10-10T19:37:03.753Z,8.05
2017-10-10T19:39:32.087Z,7.65
2017-10-10T19:42:00.354Z,7.70
2017-10-10T19:44:28.641Z,8.43
2017-10-10T19:46:56.919Z,8.02
2017-10-10T19:49:25.950Z,7.50
2017-10-10T19:51:54.455Z,7.77
2017-10-10T19:54:23.496Z,9.57
2017-10-10T19:56:51.783Z,7.40
2017-10-10T19:59:20.072Z,8.20
2017-10-10T20:01:48.620Z,8.07
2017-10-10T20:04:17.895Z,9.60
2017-10-10T20:06:46.167Z,8.23
2017-10-10T20:09:15.207Z,9.32
2017-10-10T20:11:43.495Z,8.27
2017-10-10T20:14:11.781Z,9.25
2017-10-10T20:16:40.199Z,9.80
2017-10-10T20:19:08.471Z,9.65
2017-10-10T20:21:36.743Z,9.35
2017-10-10T20:24:05.027Z,8.43
2017-10-10T20:26:33.304Z,9.75
2017-10-10T20:29:01.651Z,8.77
2017-10-10T20:31:30.744Z,9.27
2017-10-10T20:33:59.012Z,9.35
2017-10-10T20:36:27.300Z,9.05
2017-10-10T20:38:55.583Z,10.20
2017-10-10T20:41:24.060Z,8.77
2017-10-10T20:43:52.351Z,8.43
2017-10-10T20:46:20.652Z,8.90
2017-10-10T20:48:48.941Z,9.15
2017-10-10T20:51:17.215Z,7.90
2017-10-10T20:53:46.266Z,9.23
2017-10-10T20:56:14.539Z,9.55
2017-10-10T20:58:43.010Z,9.35
2017-10-10T21:01:11.291Z,8.75
2017-10-10T21:03:40.323Z,8.70
2017-10-10T21:06:08.603Z,7.55
2017-10-10T21:08:37.767Z,8.80
2017-10-10T21:11:06.051Z,8.20
2017-10-10T21:13:34.321Z,7.75
2017-10-10T21:16:03.355Z,8.80
2017-10-10T21:18:31.651Z,8.00
2017-10-10T21:20:59.926Z,8.50
2017-10-10T21:23:29.019Z,8.48
2017-10-10T21:25:58.060Z,8.30
2017-10-10T21:28:26.330Z,8.50
2017-10-10T21:30:54.611Z,6.55
2017-10-10T21:33:22.920Z,6.57
2017-10-10T21:35:51.238Z,6.57
2017-10-10T21:38:20.272Z,6.80
2017-10-10T21:40:48.536Z,7.32
2017-10-10T21:43:16.820Z,6.43
2017-10-10T21:45:45.100Z,7.03
2017-10-10T21:48:14.383Z,6.90
2017-10-10T21:50:43.427Z,6.95
2017-10-10T21:53:11.699Z,7.60
2017-10-10T21:55:40.742Z,7.10
2017-10-10T21:58:09.007Z,8.37
2017-10-10T22:00:37.310Z,7.10
2017-10-10T22:03:05.580Z,7.15
2017-10-10T22:05:34.627Z,6.55
2017-10-10T22:08:02.923Z,6.43
2017-10-10T22:10:31.954Z,7.00
2017-10-10T22:13:00.239Z,6.93
2017-10-10T22:15:28.528Z,6.35
2017-10-10T22:17:57.590Z,7.62
2017-10-10T22:20:25.854Z,6.50
2017-10-10T22:22:54.149Z,6.00
2017-10-10T22:25:22.439Z,6.25
2017-10-10T22:27:50.716Z,8.20
2017-10-10T22:30:19.018Z,6.90
2017-10-10T22:32:48.055Z,6.05
2017-10-10T22:35:16.345Z,6.35
2017-10-10T22:37:44.627Z,6.30
2017-10-10T22:40:12.896Z,6.15
2017-10-10T22:42:41.203Z,6.17
2017-10-10T22:45:09.468Z,6.05
2017-10-10T22:47:37.740Z,5.72
2017-10-10T22:50:06.024Z,6.17
2017-10-10T22:52:35.067Z,5.72
2017-10-10T22:55:03.364Z,6.45
2017-10-10T22:57:32.399Z,5.55
2017-10-10T23:00:00.687Z,5.65
2017-10-10T23:02:28.986Z,5.60
2017-10-10T23:04:57.267Z,6.00
2017-10-10T23:07:25.535Z,5.70
2017-10-10T23:09:53.839Z,5.10
2017-10-10T23:12:22.885Z,5.90
2017-10-10T23:14:51.159Z,5.93
2017-10-10T23:17:19.447Z,5.78
2017-10-10T23:19:48.480Z,5.57
2017-10-10T23:22:16.765Z,6.37
2017-10-10T23:24:45.027Z,5.13
2017-10-10T23:29:56.995Z,5.12
2017-10-10T23:32:25.299Z,6.00
2017-10-10T23:34:54.326Z,4.78
2017-10-10T23:37:22.607Z,5.32
2017-10-10T23:39:50.887Z,5.55
2017-10-10T23:42:19.156Z,5.15
2017-10-10T23:44:48.237Z,5.60
2017-10-10T23:47:17.271Z,6.18
2017-10-10T23:49:45.547Z,5.40
2017-10-10T23:52:13.830Z,6.85
2017-10-10T23:54:42.098Z,5.30
2017-10-10T23:57:11.270Z,5.70
2017-10-10T23:59:39.540Z,7.07
